createdAt,value
2018-06-10T00:00:23.320Z,30.60
2018-06-10T00:02:52.367Z,29.75
2018-06-10T00:05:21.169Z,29.83
2018-06-10T00:07:50.992Z,28.75
2018-06-10T00:10:19.828Z,31.05
2018-06-10T00:12:49.395Z,31.93
2018-06-10T00:15:18.117Z,25.37
2018-06-10T00:17:47.008Z,33.53
2018-06-10T00:20:15.572Z,27.83
2018-06-10T00:22:44.331Z,27.20
2018-06-10T00:25:13.320Z,29.03
2018-06-10T00:27:42.355Z,27.25
2018-06-10T00:30:11.318Z,31.15
2018-06-10T00:32:40.568Z,26.87
2018-06-10T00:35:09.792Z,28.12
2018-06-10T00:37:38.464Z,26.90
2018-06-10T00:40:07.995Z,25.40
2018-06-10T00:42:36.753Z,26.23
2018-06-10T00:45:05.377Z,28.87
2018-06-10T00:47:34.840Z,28.83
2018-06-10T00:50:03.192Z,27.40
2018-06-10T00:52:31.535Z,30.48
2018-06-10T00:55:00.171Z,34.37
2018-06-10T00:57:29.124Z,31.50
2018-06-10T00:59:57.706Z,30.77
2018-06-10T01:02:27.128Z,32.44
2018-06-10T01:04:55.734Z,30.55
2018-06-10T01:07:24.110Z,31.70
2018-06-10T01:09:52.679Z,29.15
2018-06-10T01:12:21.443Z,28.67
2018-06-10T01:14:50.074Z,29.48
2018-06-10T01:17:19.454Z,31.82
2018-06-10T01:19:47.886Z,32.28
2018-06-10T01:22:17.278Z,30.58
2018-06-10T01:24:46.458Z,29.72
2018-06-10T01:27:15.061Z,29.77
2018-06-10T01:29:44.123Z,30.07
2018-06-10T01:32:13.347Z,36.52
2018-06-10T01:34:42.050Z,29.17
2018-06-10T01:37:11.301Z,34.30
2018-06-10T01:39:39.680Z,30.67
2018-06-10T01:42:08.255Z,30.60
2018-06-10T01:44:37.924Z,29.44
2018-06-10T01:47:06.869Z,33.67
2018-06-10T01:49:36.704Z,31.42
2018-06-10T01:52:05.478Z,27.93
2018-06-10T01:54:33.776Z,28.40
2018-06-10T01:57:02.114Z,32.77
2018-06-10T01:59:30.553Z,30.03
2018-06-10T02:01:59.527Z,29.95
2018-06-10T02:04:28.054Z,34.00
2018-06-10T02:06:56.452Z,29.40
2018-06-10T02:09:25.227Z,34.97
2018-06-10T02:11:53.837Z,29.40
2018-06-10T02:14:23.231Z,34.70
2018-06-10T02:16:52.037Z,34.40
2018-06-10T02:19:20.354Z,33.00
2018-06-10T02:21:49.605Z,33.45
2018-06-10T02:24:18.023Z,30.62
2018-06-10T02:26:46.392Z,29.57
2018-06-10T02:29:16.067Z,31.56
2018-06-10T02:31:44.586Z,24.63
2018-06-10T02:34:14.129Z,32.26
2018-06-10T02:36:42.759Z,29.43
2018-06-10T02:39:11.273Z,28.93
2018-06-10T02:41:40.332Z,26.52
2018-06-10T02:44:08.918Z,31.02
2018-06-10T02:46:37.567Z,31.30
2018-06-10T02:49:06.952Z,27.45
2018-06-10T02:51:35.583Z,28.93
2018-06-10T02:54:05.022Z,37.93
2018-06-10T02:56:33.349Z,29.83
2018-06-10T02:59:01.944Z,29.80
2018-06-10T03:01:30.797Z,32.67
2018-06-10T03:03:59.589Z,33.13
2018-06-10T03:06:28.558Z,31.57
2018-06-10T03:08:57.640Z,27.65
2018-06-10T03:11:26.278Z,29.20
2018-06-10T03:13:54.887Z,29.95
2018-06-10T03:16:23.275Z,29.20
2018-06-10T03:18:52.451Z,32.85
2018-06-10T03:21:21.051Z,29.93
2018-06-10T03:23:49.640Z,33.90
2018-06-10T03:26:18.254Z,28.17
2018-06-10T03:28:46.822Z,29.42
2018-06-10T03:31:16.433Z,32.16
2018-06-10T03:33:45.018Z,35.88
2018-06-10T03:36:13.994Z,33.53
2018-06-10T03:38:42.603Z,28.97
2018-06-10T03:41:11.559Z,32.87
2018-06-10T03:43:40.497Z,29.57
2018-06-10T03:46:10.033Z,33.30
2018-06-10T03:48:39.608Z,29.06
2018-06-10T03:51:08.278Z,33.90
2018-06-10T03:53:36.957Z,31.93
2018-06-10T03:56:05.759Z,28.27
2018-06-10T03:58:34.366Z,31.07
2018-06-10T04:01:02.685Z,26.53
2018-06-10T04:03:31.565Z,31.52
2018-06-10T04:06:00.292Z,25.93
2018-06-10T04:08:28.971Z,34.03
2018-06-10T04:10:58.400Z,31.73
2018-06-10T04:13:27.010Z,28.55
2018-06-10T04:15:56.411Z,29.67
2018-06-10T04:18:25.008Z,27.30
2018-06-10T04:21:03.803Z,27.75
2018-06-10T04:23:32.887Z,29.06
2018-06-10T04:26:02.352Z,31.23
2018-06-10T04:28:30.831Z,33.47
2018-06-10T04:30:59.433Z,27.13
2018-06-10T04:33:29.294Z,26.55
2018-06-10T04:35:57.695Z,30.36
2018-06-10T04:38:26.523Z,25.37
2018-06-10T04:40:58.156Z,29.65
2018-06-10T04:43:27.056Z,29.55
2018-06-10T04:45:55.902Z,29.32
2018-06-10T04:48:24.532Z,29.10
2018-06-10T04:50:53.137Z,29.87
2018-06-10T04:53:21.579Z,28.50
2018-06-10T04:55:51.128Z,26.45
2018-06-10T04:58:20.602Z,21.54
2018-06-10T05:00:49.177Z,26.97
2018-06-10T05:03:17.526Z,27.67
2018-06-10T05:05:46.584Z,24.85
2018-06-10T05:08:15.874Z,25.43
2018-06-10T05:10:44.439Z,25.90
2018-06-10T05:13:13.087Z,28.17
2018-06-10T05:15:41.584Z,27.10
2018-06-10T05:18:10.173Z,22.73
2018-06-10T05:20:39.817Z,27.70
2018-06-10T05:23:08.508Z,24.63
2018-06-10T05:25:37.103Z,26.77
2018-06-10T05:28:06.634Z,22.98
2018-06-10T05:30:35.066Z,22.53
2018-06-10T05:33:03.356Z,20.47
2018-06-10T05:35:32.372Z,19.90
2018-06-10T05:38:00.763Z,21.30
2018-06-10T05:40:29.546Z,28.50
2018-06-10T05:42:58.137Z,21.50
2018-06-10T05:45:27.221Z,27.93
2018-06-10T05:48:02.814Z,25.06
2018-06-10T05:50:31.931Z,25.85
2018-06-10T05:53:00.792Z,21.85
2018-06-10T05:55:29.154Z,25.73
2018-06-10T05:57:57.770Z,22.60
2018-06-10T06:00:26.116Z,25.23
2018-06-10T06:02:55.394Z,26.65
2018-06-10T06:05:24.984Z,24.42
2018-06-10T06:07:53.296Z,26.02
2018-06-10T06:10:22.883Z,24.78
2018-06-10T06:12:51.485Z,23.10
2018-06-10T06:15:20.087Z,25.15
2018-06-10T06:17:49.618Z,25.23
2018-06-10T06:20:18.714Z,20.77
2018-06-10T06:22:47.089Z,22.37
2018-06-10T06:25:15.599Z,24.53
2018-06-10T06:27:44.908Z,21.20
2018-06-10T06:30:14.171Z,19.02
2018-06-10T06:32:42.889Z,19.03
2018-06-10T06:35:11.206Z,17.13
2018-06-10T06:37:40.456Z,20.15
2018-06-10T06:40:09.074Z,16.97
2018-06-10T06:42:37.421Z,19.27
2018-06-10T06:45:06.876Z,17.48
2018-06-10T06:47:35.686Z,17.73
2018-06-10T06:50:04.677Z,17.13
2018-06-10T06:52:34.204Z,15.75
2018-06-10T06:55:03.017Z,16.43
2018-06-10T06:57:31.668Z,14.63
2018-06-10T07:00:01.287Z,15.08
2018-06-10T07:02:30.227Z,15.15
2018-06-10T07:05:02.832Z,13.35
2018-06-10T07:07:31.461Z,14.58
2018-06-10T07:10:00.011Z,13.62
2018-06-10T07:12:37.771Z,13.77
2018-06-10T07:15:06.171Z,16.23
2018-06-10T07:17:34.849Z,14.80
2018-06-10T07:20:03.511Z,15.75
2018-06-10T07:22:32.032Z,16.93
2018-06-10T07:25:00.413Z,18.47
2018-06-10T07:27:29.043Z,14.37
2018-06-10T07:30:00.777Z,15.57
2018-06-10T07:32:29.430Z,15.20
2018-06-10T07:34:58.602Z,13.50
2018-06-10T07:37:27.952Z,16.73
2018-06-10T07:39:56.613Z,22.20
2018-06-10T07:42:25.317Z,15.55
2018-06-10T07:44:54.255Z,13.53
2018-06-10T07:47:23.382Z,14.77
2018-06-10T07:49:51.954Z,12.90
2018-06-10T07:52:20.394Z,16.00
2018-06-10T07:54:49.476Z,15.18
2018-06-10T07:57:18.033Z,14.53
2018-06-10T07:59:47.179Z,15.83
2018-06-10T08:02:17.231Z,15.52
2018-06-10T08:04:45.917Z,16.83
2018-06-10T08:07:15.714Z,15.96
2018-06-10T08:09:44.739Z,14.90
2018-06-10T08:12:13.220Z,15.60
2018-06-10T08:14:42.485Z,15.18
2018-06-10T08:17:10.833Z,12.83
2018-06-10T08:20:16.585Z,16.30
2018-06-10T08:22:45.492Z,14.43
2018-06-10T08:25:14.360Z,12.80
2018-06-10T08:27:43.305Z,16.23
2018-06-10T08:30:12.539Z,14.78
2018-06-10T08:32:41.081Z,17.77
2018-06-10T08:36:30.980Z,16.93
2018-06-10T08:38:59.573Z,17.70
2018-06-10T08:41:28.195Z,16.13
2018-06-10T08:43:57.913Z,16.05
2018-06-10T08:46:26.514Z,16.30
2018-06-10T08:48:55.661Z,13.68
2018-06-10T08:51:24.222Z,16.97
2018-06-10T08:53:52.827Z,14.83
2018-06-10T08:56:21.201Z,14.70
2018-06-10T08:58:59.790Z,14.60
2018-06-10T09:01:28.428Z,15.30
2018-06-10T09:04:00.862Z,15.88
2018-06-10T09:06:29.548Z,13.78
2018-06-10T09:08:58.861Z,15.22
2018-06-10T09:11:27.776Z,13.25
2018-06-10T09:13:56.866Z,15.73
2018-06-10T09:16:26.120Z,12.60
2018-06-10T09:18:54.794Z,16.07
2018-06-10T09:21:24.660Z,14.42
2018-06-10T09:23:54.309Z,14.76
2018-06-10T09:26:26.588Z,16.25
2018-06-10T09:28:55.092Z,13.07
2018-06-10T09:31:27.770Z,13.90
2018-06-10T09:34:00.287Z,13.58
2018-06-10T09:36:35.059Z,14.00
2018-06-10T09:39:04.976Z,12.63
2018-06-10T09:41:34.503Z,13.05
2018-06-10T09:44:03.370Z,10.40
2018-06-10T09:46:32.047Z,12.15
2018-06-10T09:49:00.404Z,10.83
2018-06-10T09:51:29.278Z,13.28
2018-06-10T09:53:57.744Z,11.30
2018-06-10T09:56:26.359Z,11.40
2018-06-10T09:58:55.035Z,11.95
2018-06-10T10:01:23.795Z,9.57
2018-06-10T10:03:53.500Z,9.34
2018-06-10T10:06:21.912Z,10.10
2018-06-10T10:08:50.636Z,12.63
2018-06-10T10:11:20.615Z,12.08
2018-06-10T10:13:50.189Z,10.95
2018-06-10T10:16:18.830Z,9.75
2018-06-10T10:18:47.596Z,9.47
2018-06-10T10:21:16.678Z,9.78
2018-06-10T10:23:45.856Z,10.13
2018-06-10T10:26:14.450Z,10.60
2018-06-10T10:28:43.219Z,11.40
2018-06-10T10:31:12.292Z,10.90
2018-06-10T10:33:40.907Z,9.00
2018-06-10T10:36:09.938Z,9.68
2018-06-10T10:38:38.528Z,11.22
2018-06-10T10:41:07.368Z,10.67
2018-06-10T10:43:36.453Z,10.53
2018-06-10T10:46:04.817Z,11.53
2018-06-10T10:48:33.153Z,11.10
2018-06-10T10:51:02.361Z,9.83
2018-06-10T10:53:30.857Z,8.03
2018-06-10T10:55:59.968Z,11.35
2018-06-10T10:58:28.626Z,9.10
2018-06-10T11:00:58.284Z,9.36
2018-06-10T11:03:26.872Z,8.23
2018-06-10T11:05:56.288Z,8.63
2018-06-10T11:08:24.810Z,9.63
2018-06-10T11:10:53.409Z,7.62
2018-06-10T11:13:22.895Z,8.13
2018-06-10T11:15:52.639Z,9.12
2018-06-10T11:18:21.136Z,7.87
2018-06-10T11:20:50.305Z,7.08
2018-06-10T11:23:18.828Z,8.23
2018-06-10T11:28:24.168Z,5.40
2018-06-10T11:30:52.779Z,6.93
2018-06-10T11:33:21.452Z,7.33
2018-06-10T11:35:50.013Z,9.70
2018-06-10T11:38:19.636Z,7.92
2018-06-10T11:40:48.328Z,10.30
2018-06-10T11:43:16.636Z,10.07
2018-06-10T11:45:45.345Z,9.50
2018-06-10T11:48:14.010Z,10.15
2018-06-10T11:50:42.678Z,10.07
2018-06-10T11:53:11.760Z,10.13
2018-06-10T11:55:41.411Z,11.58
2018-06-10T11:58:09.835Z,8.85
2018-06-10T12:00:38.345Z,8.87
2018-06-10T12:03:06.828Z,8.68
2018-06-10T12:05:37.176Z,8.52
2018-06-10T12:08:06.943Z,8.00
2018-06-10T12:10:35.630Z,9.10
2018-06-10T12:13:04.349Z,9.23
2018-06-10T12:15:33.731Z,6.90
2018-06-10T12:18:03.428Z,9.18
2018-06-10T12:20:32.271Z,7.13
2018-06-10T12:23:01.805Z,8.94
2018-06-10T12:25:30.618Z,8.53
2018-06-10T12:27:59.660Z,8.23
2018-06-10T12:30:28.208Z,7.70
2018-06-10T12:32:56.858Z,8.28
2018-06-10T12:35:25.222Z,9.50
2018-06-10T12:37:54.668Z,8.15
2018-06-10T12:40:23.344Z,9.27
2018-06-10T12:42:53.029Z,6.76
2018-06-10T12:45:22.501Z,6.78
2018-06-10T12:47:51.813Z,7.63
2018-06-10T12:50:20.830Z,9.73
2018-06-10T12:52:49.866Z,9.65
2018-06-10T12:55:19.417Z,11.43
2018-06-10T12:57:48.336Z,7.90
2018-06-10T13:00:17.738Z,8.00
2018-06-10T13:02:46.403Z,9.00
2018-06-10T13:05:15.683Z,7.17
2018-06-10T13:07:45.607Z,8.16
2018-06-10T13:10:14.265Z,7.85
2018-06-10T13:12:43.581Z,6.78
2018-06-10T13:15:21.003Z,9.45
2018-06-10T13:17:49.761Z,6.87
2018-06-10T13:20:18.534Z,7.85
2018-06-10T13:25:22.395Z,8.30
2018-06-10T13:27:51.949Z,10.68
2018-06-10T13:30:30.582Z,7.97
2018-06-10T13:32:59.965Z,8.16
2018-06-10T13:35:31.426Z,6.83
2018-06-10T13:38:03.220Z,6.63
2018-06-10T13:40:31.709Z,7.08
2018-06-10T13:43:01.352Z,7.85
2018-06-10T13:45:30.004Z,7.67
2018-06-10T13:47:59.104Z,10.35
2018-06-10T13:50:27.683Z,8.37
2018-06-10T13:53:00.147Z,8.50
2018-06-10T13:55:28.813Z,9.83
2018-06-10T13:57:57.349Z,8.58
2018-06-10T14:00:26.952Z,7.10
2018-06-10T14:02:55.588Z,8.83
2018-06-10T14:05:24.202Z,8.93
2018-06-10T14:07:55.708Z,10.70
2018-06-10T14:10:25.382Z,10.40
2018-06-10T14:12:53.963Z,9.97
2018-06-10T14:15:22.352Z,10.33
2018-06-10T14:17:51.793Z,10.77
2018-06-10T14:20:20.531Z,8.20
2018-06-10T14:22:49.125Z,8.98
2018-06-10T14:25:18.217Z,6.73
2018-06-10T14:27:46.970Z,10.00
2018-06-10T14:30:15.518Z,7.17
2018-06-10T14:32:44.587Z,11.12
2018-06-10T14:35:13.670Z,9.50
2018-06-10T14:37:43.313Z,9.02
2018-06-10T14:40:11.655Z,8.50
2018-06-10T14:42:39.987Z,8.25
2018-06-10T14:45:09.885Z,9.08
2018-06-10T14:47:38.575Z,6.50
2018-06-10T14:50:07.985Z,7.62
2018-06-10T14:52:36.609Z,6.10
2018-06-10T14:55:05.240Z,8.10
2018-06-10T14:57:33.626Z,9.60
2018-06-10T15:00:02.134Z,7.00
2018-06-10T15:02:31.178Z,7.08
2018-06-10T15:05:00.715Z,9.24
2018-06-10T15:07:29.819Z,7.17
2018-06-10T15:09:59.258Z,7.30
2018-06-10T15:12:28.609Z,7.16
2018-06-10T15:14:56.978Z,7.03
2018-06-10T15:17:26.728Z,7.34
2018-06-10T15:19:55.837Z,7.00
2018-06-10T15:31:05.318Z,5.97
2018-06-10T15:33:33.923Z,6.20
2018-06-10T15:36:02.232Z,6.67
2018-06-10T15:38:31.333Z,7.87
2018-06-10T15:40:59.911Z,6.78
2018-06-10T15:43:29.393Z,7.53
2018-06-10T15:45:57.983Z,6.43
2018-06-10T15:48:26.563Z,7.25
2018-06-10T15:50:56.311Z,5.68
2018-06-10T15:53:24.912Z,6.40
2018-06-10T15:55:53.613Z,7.87
2018-06-10T15:58:22.144Z,5.78
2018-06-10T16:00:50.620Z,6.50
2018-06-10T16:03:20.354Z,5.24
2018-06-10T16:05:49.984Z,6.10
2018-06-10T16:08:19.708Z,5.28
2018-06-10T16:10:48.654Z,7.80
2018-06-10T16:13:17.558Z,5.37
2018-06-10T16:15:46.350Z,4.83
2018-06-10T16:18:14.961Z,6.77
2018-06-10T16:20:44.307Z,8.56
2018-06-10T16:23:12.642Z,7.93
2018-06-10T16:25:41.530Z,6.53
2018-06-10T16:28:10.762Z,5.90
2018-06-10T16:30:39.144Z,10.27
2018-06-10T16:33:08.066Z,5.73
2018-06-10T16:35:37.420Z,8.53
2018-06-10T16:38:05.997Z,4.90
2018-06-10T16:40:34.741Z,5.13
2018-06-10T16:43:03.244Z,5.85
2018-06-10T16:45:32.507Z,5.65
2018-06-10T16:48:01.229Z,5.50
2018-06-10T16:50:29.758Z,5.33
2018-06-10T16:52:59.414Z,6.24
2018-06-10T16:55:29.067Z,6.58
2018-06-10T16:57:57.620Z,5.40
2018-06-10T17:00:26.182Z,4.75
2018-06-10T17:02:54.605Z,5.90
2018-06-10T17:05:23.736Z,8.45
2018-06-10T17:07:52.035Z,5.50
2018-06-10T17:10:20.931Z,5.00
2018-06-10T17:12:49.648Z,7.60
2018-06-10T17:15:19.263Z,4.68
2018-06-10T17:17:47.892Z,6.03
2018-06-10T17:20:17.115Z,6.58
2018-06-10T17:22:45.749Z,5.33
2018-06-10T17:25:14.192Z,6.53
2018-06-10T17:27:43.036Z,6.97
2018-06-10T17:30:11.793Z,4.53
2018-06-10T17:32:40.150Z,6.80
2018-06-10T17:35:08.883Z,5.50
2018-06-10T17:37:37.630Z,5.33
2018-06-10T17:40:06.186Z,6.53
2018-06-10T17:42:35.827Z,5.53
2018-06-10T17:45:05.225Z,5.42
2018-06-10T17:47:33.624Z,5.27
2018-06-10T17:50:03.514Z,8.28
2018-06-10T17:52:31.867Z,6.00
2018-06-10T17:55:00.832Z,7.20
2018-06-10T17:57:29.130Z,8.13
2018-06-10T18:00:00.679Z,5.76
2018-06-10T18:02:29.236Z,6.17
2018-06-10T18:04:57.646Z,5.90
2018-06-10T18:07:27.132Z,5.67
2018-06-10T18:09:55.661Z,4.83
2018-06-10T18:12:25.304Z,8.05
2018-06-10T18:14:53.681Z,6.32
2018-06-10T18:17:22.719Z,7.00
2018-06-10T18:19:51.619Z,7.78
2018-06-10T18:22:20.196Z,5.30
2018-06-10T18:24:49.110Z,5.22
2018-06-10T18:27:18.288Z,7.60
2018-06-10T18:29:46.940Z,6.13
2018-06-10T18:32:15.501Z,5.80
2018-06-10T18:34:44.576Z,4.80
2018-06-10T18:37:13.593Z,5.30
2018-06-10T18:39:42.600Z,4.78
2018-06-10T18:42:11.723Z,5.42
2018-06-10T18:44:40.269Z,5.65
2018-06-10T18:47:09.060Z,5.77
2018-06-10T18:49:37.685Z,5.30
2018-06-10T18:52:06.239Z,4.17
2018-06-10T18:54:35.016Z,5.87
2018-06-10T18:57:03.915Z,4.65
2018-06-10T18:59:33.445Z,4.82
2018-06-10T19:02:02.551Z,4.57
2018-06-10T19:04:32.858Z,5.72
2018-06-10T19:07:01.521Z,5.70
2018-06-10T19:09:30.172Z,6.53
2018-06-10T19:11:58.748Z,5.65
2018-06-10T19:14:27.625Z,4.53
2018-06-10T19:16:56.157Z,5.73
2018-06-10T19:19:24.521Z,7.93
2018-06-10T19:21:53.546Z,4.50
2018-06-10T19:24:22.253Z,6.28
2018-06-10T19:26:50.612Z,5.27
2018-06-10T19:29:20.415Z,5.10
2018-06-10T19:31:49.259Z,6.63
2018-06-10T19:34:18.396Z,5.75
2018-06-10T19:36:46.983Z,5.07
2018-06-10T19:39:16.499Z,5.55
2018-06-10T19:41:44.798Z,4.97
2018-06-10T19:44:14.199Z,4.78
2018-06-10T19:46:44.088Z,7.04
2018-06-10T19:49:12.671Z,6.60
2018-06-10T19:51:41.886Z,9.48
2018-06-10T19:54:10.479Z,6.80
2018-06-10T19:56:40.543Z,6.60
2018-06-10T19:59:09.616Z,13.25
2018-06-10T20:01:39.032Z,6.80
2018-06-10T20:04:07.875Z,6.83
2018-06-10T20:06:36.750Z,6.30
2018-06-10T20:09:07.718Z,7.40
2018-06-10T20:11:36.174Z,6.70
2018-06-10T20:14:04.796Z,8.20
2018-06-10T20:16:33.537Z,6.60
2018-06-10T20:19:02.045Z,7.00
2018-06-10T20:21:30.417Z,6.53
2018-06-10T20:23:58.897Z,7.10
2018-06-10T20:26:27.808Z,5.57
2018-06-10T20:28:56.920Z,5.80
2018-06-10T20:31:25.392Z,8.13
2018-06-10T20:33:53.948Z,6.87
2018-06-10T20:36:24.129Z,6.22
2018-06-10T20:38:52.769Z,7.17
2018-06-10T20:41:22.381Z,7.13
2018-06-10T20:43:51.597Z,5.70
2018-06-10T20:46:20.179Z,5.80
2018-06-10T20:48:48.729Z,6.42
2018-06-10T20:51:17.630Z,7.50
2018-06-10T20:53:46.254Z,7.20
2018-06-10T20:56:15.039Z,6.77
2018-06-10T20:58:44.217Z,6.07
2018-06-10T21:01:12.600Z,7.00
2018-06-10T21:03:40.918Z,7.43
2018-06-10T21:06:09.461Z,7.03
2018-06-10T21:08:37.721Z,7.83
2018-06-10T21:11:07.222Z,7.25
2018-06-10T21:13:35.723Z,7.80
2018-06-10T21:16:04.266Z,7.50
2018-06-10T21:18:32.840Z,6.37
2018-06-10T21:21:01.988Z,9.33
2018-06-10T21:23:30.525Z,7.60
2018-06-10T21:25:58.823Z,8.20
2018-06-10T21:28:28.233Z,7.88
2018-06-10T21:30:56.627Z,6.80
2018-06-10T21:33:25.264Z,6.13
2018-06-10T21:35:53.770Z,6.35
2018-06-10T21:38:22.324Z,6.40
2018-06-10T21:40:50.618Z,6.87
2018-06-10T21:43:20.006Z,7.08
2018-06-10T21:45:48.790Z,8.20
2018-06-10T21:48:18.183Z,8.33
2018-06-10T21:50:46.706Z,7.55
2018-06-10T21:53:16.107Z,8.68
2018-06-10T21:55:44.383Z,6.80
2018-06-10T21:58:12.971Z,7.45
2018-06-10T22:00:42.742Z,8.93
2018-06-10T22:03:11.126Z,8.47
2018-06-10T22:05:39.647Z,9.47
2018-06-10T22:08:08.140Z,7.40
2018-06-10T22:10:37.015Z,8.63
2018-06-10T22:13:05.791Z,10.32
2018-06-10T22:15:35.231Z,9.75
2018-06-10T22:18:03.834Z,9.50
2018-06-10T22:20:32.394Z,9.33
2018-06-10T22:23:00.950Z,11.03
2018-06-10T22:25:29.509Z,11.87
2018-06-10T22:27:58.038Z,8.13
2018-06-10T22:30:27.174Z,10.30
2018-06-10T22:32:55.727Z,11.20
2018-06-10T22:35:24.157Z,9.07
2018-06-10T22:37:53.104Z,10.48
2018-06-10T22:40:21.401Z,10.27
2018-06-10T22:42:49.950Z,10.98
2018-06-10T22:45:19.125Z,7.85
2018-06-10T22:47:48.378Z,10.56
2018-06-10T22:50:16.868Z,9.03
2018-06-10T22:52:46.042Z,10.88
2018-06-10T22:55:15.151Z,8.88
2018-06-10T22:57:44.180Z,9.68
2018-06-10T23:00:13.092Z,8.95
2018-06-10T23:02:42.934Z,8.85
2018-06-10T23:05:11.616Z,8.75
2018-06-10T23:07:39.905Z,10.60
2018-06-10T23:10:08.439Z,9.88
2018-06-10T23:12:36.954Z,10.30
2018-06-10T23:15:05.590Z,11.33
2018-06-10T23:17:34.652Z,10.33
2018-06-10T23:20:03.225Z,10.28
2018-06-10T23:22:31.762Z,11.22
2018-06-10T23:25:00.283Z,10.73
2018-06-10T23:27:29.031Z,10.80
2018-06-10T23:29:57.583Z,11.83
2018-06-10T23:32:26.312Z,9.50
2018-06-10T23:34:55.438Z,10.90
2018-06-10T23:37:23.974Z,11.03
2018-06-10T23:39:52.522Z,13.07
2018-06-10T23:42:20.771Z,11.55
2018-06-10T23:44:49.029Z,11.50
2018-06-10T23:47:18.315Z,11.33
2018-06-10T23:49:47.001Z,15.08
2018-06-10T23:52:15.563Z,13.13
2018-06-10T23:54:43.974Z,12.18
2018-06-10T23:57:12.870Z,12.35
2018-06-10T23:59:41.365Z,11.47
